Herbert, Canada
Current Conditions -  °F | °C
As of 9:06 PM on Monday 22 Dec 2014 (Local Time) from CYYN Reporting Station
Haze Haze  
Wind Chill: 12°   Ceiling: 700
Heat Index: 23°   Visibility: 5mi
Dew Point: 21°   Wind: 10mph
Humidity: 93%   Direction: 300°WNW
Pressure: 29.97"   Gusts: NA
Location:  50.43°N, 107.22°W
Report Text: CYYN 230306Z AUTO 30009KT 5SM BR OVC007 M05/M06 A2997 RMK SLP191
Loading
Personal Weather Stations






























Interactive Weather Map New forecast layout! Learn more

10-Day Weather Forecast

Advertisements
Track Severe Weather on mobile